sensor_id;sensor_type;location;lat;lon;timestamp;P1;durP1;ratioP1;P2;durP2;ratioP2
77612;SDS011;66777;52.282;5.960;2023-05-07T00:01:54;56.28;;;36.75;;
77612;SDS011;66777;52.282;5.960;2023-05-07T00:04:21;48.97;;;34.20;;
77612;SDS011;66777;52.282;5.960;2023-05-07T00:06:46;46.60;;;35.90;;
77612;SDS011;66777;52.282;5.960;2023-05-07T00:09:12;49.03;;;36.10;;
77612;SDS011;66777;52.282;5.960;2023-05-07T00:11:38;43.00;;;31.17;;
77612;SDS011;66777;52.282;5.960;2023-05-07T00:14:04;49.42;;;34.22;;
77612;SDS011;66777;52.282;5.960;2023-05-07T00:16:30;49.53;;;44.10;;
77612;SDS011;66777;52.282;5.960;2023-05-07T00:18:57;57.47;;;44.42;;
77612;SDS011;66777;52.282;5.960;2023-05-07T00:21:23;53.15;;;35.08;;
77612;SDS011;66777;52.282;5.960;2023-05-07T00:23:52;67.03;;;37.00;;
77612;SDS011;66777;52.282;5.960;2023-05-07T00:26:18;54.08;;;38.10;;
77612;SDS011;66777;52.282;5.960;2023-05-07T00:28:44;47.92;;;34.35;;
77612;SDS011;66777;52.282;5.960;2023-05-07T00:31:10;49.13;;;35.20;;
77612;SDS011;66777;52.282;5.960;2023-05-07T00:33:35;53.45;;;46.85;;
77612;SDS011;66777;52.282;5.960;2023-05-07T00:36:01;47.63;;;34.22;;
77612;SDS011;66777;52.282;5.960;2023-05-07T00:38:27;53.80;;;44.28;;
77612;SDS011;66777;52.282;5.960;2023-05-07T00:40:52;50.63;;;34.28;;
77612;SDS011;66777;52.282;5.960;2023-05-07T00:43:18;54.28;;;48.45;;
77612;SDS011;66777;52.282;5.960;2023-05-07T00:45:44;52.30;;;35.72;;
77612;SDS011;66777;52.282;5.960;2023-05-07T00:48:10;57.03;;;36.97;;
77612;SDS011;66777;52.282;5.960;2023-05-07T00:50:37;50.97;;;42.25;;
77612;SDS011;66777;52.282;5.960;2023-05-07T00:53:02;50.65;;;34.83;;
77612;SDS011;66777;52.282;5.960;2023-05-07T00:55:29;64.25;;;37.58;;
77612;SDS011;66777;52.282;5.960;2023-05-07T00:57:56;60.22;;;38.13;;
77612;SDS011;66777;52.282;5.960;2023-05-07T01:00:21;72.15;;;50.33;;
77612;SDS011;66777;52.282;5.960;2023-05-07T01:02:47;60.17;;;37.65;;
77612;SDS011;66777;52.282;5.960;2023-05-07T01:05:14;70.47;;;38.83;;
77612;SDS011;66777;52.282;5.960;2023-05-07T01:07:42;67.55;;;36.55;;
77612;SDS011;66777;52.282;5.960;2023-05-07T01:10:09;60.88;;;36.42;;
77612;SDS011;66777;52.282;5.960;2023-05-07T01:12:36;80.40;;;37.60;;
77612;SDS011;66777;52.282;5.960;2023-05-07T01:15:04;68.28;;;44.88;;
77612;SDS011;66777;52.282;5.960;2023-05-07T01:17:35;56.08;;;38.58;;
77612;SDS011;66777;52.282;5.960;2023-05-07T01:20:04;72.20;;;51.20;;
77612;SDS011;66777;52.282;5.960;2023-05-07T01:22:37;69.60;;;50.17;;
77612;SDS011;66777;52.282;5.960;2023-05-07T01:25:06;63.30;;;37.97;;
77612;SDS011;66777;52.282;5.960;2023-05-07T01:27:33;66.30;;;41.35;;
77612;SDS011;66777;52.282;5.960;2023-05-07T01:30:00;66.72;;;36.70;;
77612;SDS011;66777;52.282;5.960;2023-05-07T01:32:36;61.97;;;37.80;;
77612;SDS011;66777;52.282;5.960;2023-05-07T01:35:09;56.75;;;35.90;;
77612;SDS011;66777;52.282;5.960;2023-05-07T01:37:39;59.35;;;35.25;;
77612;SDS011;66777;52.282;5.960;2023-05-07T01:40:06;84.40;;;38.47;;
77612;SDS011;66777;52.282;5.960;2023-05-07T01:42:32;59.85;;;34.80;;
77612;SDS011;66777;52.282;5.960;2023-05-07T01:44:58;69.90;;;44.70;;
77612;SDS011;66777;52.282;5.960;2023-05-07T01:47:25;58.00;;;34.85;;
77612;SDS011;66777;52.282;5.960;2023-05-07T01:49:51;65.20;;;39.70;;
77612;SDS011;66777;52.282;5.960;2023-05-07T01:52:17;65.82;;;37.47;;
77612;SDS011;66777;52.282;5.960;2023-05-07T01:54:43;79.43;;;48.28;;
77612;SDS011;66777;52.282;5.960;2023-05-07T01:57:09;61.40;;;35.42;;
77612;SDS011;66777;52.282;5.960;2023-05-07T01:59:35;63.60;;;36.35;;
77612;SDS011;66777;52.282;5.960;2023-05-07T02:02:01;67.75;;;35.15;;
77612;SDS011;66777;52.282;5.960;2023-05-07T02:04:27;70.40;;;51.50;;
77612;SDS011;66777;52.282;5.960;2023-05-07T02:06:53;73.32;;;49.90;;
77612;SDS011;66777;52.282;5.960;2023-05-07T02:09:19;66.97;;;36.83;;
77612;SDS011;66777;52.282;5.960;2023-05-07T02:11:46;77.82;;;39.83;;
77612;SDS011;66777;52.282;5.960;2023-05-07T02:14:12;65.57;;;36.97;;
77612;SDS011;66777;52.282;5.960;2023-05-07T02:16:38;66.07;;;40.10;;
77612;SDS011;66777;52.282;5.960;2023-05-07T02:19:04;69.72;;;39.67;;
77612;SDS011;66777;52.282;5.960;2023-05-07T02:21:30;75.22;;;40.22;;
77612;SDS011;66777;52.282;5.960;2023-05-07T02:23:56;71.68;;;41.08;;
77612;SDS011;66777;52.282;5.960;2023-05-07T02:26:22;71.50;;;43.05;;
77612;SDS011;66777;52.282;5.960;2023-05-07T02:28:47;100.95;;;42.10;;
77612;SDS011;66777;52.282;5.960;2023-05-07T02:31:13;85.78;;;40.40;;
77612;SDS011;66777;52.282;5.960;2023-05-07T02:33:39;87.95;;;44.78;;
77612;SDS011;66777;52.282;5.960;2023-05-07T02:36:06;84.85;;;52.42;;
77612;SDS011;66777;52.282;5.960;2023-05-07T02:38:33;85.55;;;52.45;;
77612;SDS011;66777;52.282;5.960;2023-05-07T02:40:59;79.63;;;43.25;;
77612;SDS011;66777;52.282;5.960;2023-05-07T02:43:25;105.65;;;40.47;;
77612;SDS011;66777;52.282;5.960;2023-05-07T02:45:59;83.10;;;44.75;;
77612;SDS011;66777;52.282;5.960;2023-05-07T02:48:29;97.20;;;43.88;;
77612;SDS011;66777;52.282;5.960;2023-05-07T02:50:58;87.50;;;43.63;;
77612;SDS011;66777;52.282;5.960;2023-05-07T02:53:24;97.97;;;44.30;;
77612;SDS011;66777;52.282;5.960;2023-05-07T02:55:52;82.88;;;43.95;;
77612;SDS011;66777;52.282;5.960;2023-05-07T02:58:18;86.97;;;44.60;;
77612;SDS011;66777;52.282;5.960;2023-05-07T03:00:44;82.82;;;45.80;;
77612;SDS011;66777;52.282;5.960;2023-05-07T03:03:11;86.53;;;44.38;;
77612;SDS011;66777;52.282;5.960;2023-05-07T03:05:36;89.72;;;47.70;;
77612;SDS011;66777;52.282;5.960;2023-05-07T03:08:02;100.95;;;45.22;;
77612;SDS011;66777;52.282;5.960;2023-05-07T03:10:29;98.57;;;46.65;;
77612;SDS011;66777;52.282;5.960;2023-05-07T03:12:55;138.93;;;57.65;;
77612;SDS011;66777;52.282;5.960;2023-05-07T03:15:21;134.15;;;49.00;;
77612;SDS011;66777;52.282;5.960;2023-05-07T03:17:48;108.18;;;46.67;;
77612;SDS011;66777;52.282;5.960;2023-05-07T03:20:13;109.07;;;58.58;;
77612;SDS011;66777;52.282;5.960;2023-05-07T03:22:40;100.15;;;46.42;;
77612;SDS011;66777;52.282;5.960;2023-05-07T03:25:06;111.30;;;48.95;;
77612;SDS011;66777;52.282;5.960;2023-05-07T03:27:34;104.85;;;46.38;;
77612;SDS011;66777;52.282;5.960;2023-05-07T03:30:00;116.72;;;45.78;;
77612;SDS011;66777;52.282;5.960;2023-05-07T03:32:25;114.15;;;48.47;;
77612;SDS011;66777;52.282;5.960;2023-05-07T03:34:51;108.07;;;47.83;;
77612;SDS011;66777;52.282;5.960;2023-05-07T03:37:17;105.80;;;57.80;;
77612;SDS011;66777;52.282;5.960;2023-05-07T03:39:43;123.47;;;54.10;;
77612;SDS011;66777;52.282;5.960;2023-05-07T03:42:09;99.43;;;45.13;;
77612;SDS011;66777;52.282;5.960;2023-05-07T03:44:36;118.38;;;46.90;;
77612;SDS011;66777;52.282;5.960;2023-05-07T03:47:03;117.93;;;45.80;;
77612;SDS011;66777;52.282;5.960;2023-05-07T03:49:29;99.53;;;46.20;;
77612;SDS011;66777;52.282;5.960;2023-05-07T03:51:55;117.93;;;43.33;;
77612;SDS011;66777;52.282;5.960;2023-05-07T03:54:21;91.95;;;45.30;;
77612;SDS011;66777;52.282;5.960;2023-05-07T03:56:47;112.95;;;47.10;;
77612;SDS011;66777;52.282;5.960;2023-05-07T03:59:13;89.05;;;46.95;;
77612;SDS011;66777;52.282;5.960;2023-05-07T04:01:39;89.57;;;44.33;;
77612;SDS011;66777;52.282;5.960;2023-05-07T04:04:05;91.72;;;43.25;;
77612;SDS011;66777;52.282;5.960;2023-05-07T04:06:31;83.75;;;43.50;;
77612;SDS011;66777;52.282;5.960;2023-05-07T04:08:56;90.18;;;42.65;;
77612;SDS011;66777;52.282;5.960;2023-05-07T04:11:22;99.88;;;44.03;;
77612;SDS011;66777;52.282;5.960;2023-05-07T04:13:48;87.13;;;43.65;;
77612;SDS011;66777;52.282;5.960;2023-05-07T04:16:15;80.28;;;42.58;;
77612;SDS011;66777;52.282;5.960;2023-05-07T04:18:41;111.05;;;53.55;;
77612;SDS011;66777;52.282;5.960;2023-05-07T04:21:16;90.35;;;43.63;;
77612;SDS011;66777;52.282;5.960;2023-05-07T04:23:43;96.65;;;46.45;;
77612;SDS011;66777;52.282;5.960;2023-05-07T04:26:09;110.18;;;45.45;;
77612;SDS011;66777;52.282;5.960;2023-05-07T04:28:35;91.65;;;44.80;;
77612;SDS011;66777;52.282;5.960;2023-05-07T04:31:01;86.38;;;43.03;;
77612;SDS011;66777;52.282;5.960;2023-05-07T04:33:28;90.47;;;54.75;;
77612;SDS011;66777;52.282;5.960;2023-05-07T04:35:54;84.97;;;42.40;;
77612;SDS011;66777;52.282;5.960;2023-05-07T04:38:20;84.90;;;45.83;;
77612;SDS011;66777;52.282;5.960;2023-05-07T04:40:46;81.10;;;40.90;;
77612;SDS011;66777;52.282;5.960;2023-05-07T04:43:12;78.07;;;40.63;;
77612;SDS011;66777;52.282;5.960;2023-05-07T04:45:38;94.68;;;43.40;;
77612;SDS011;66777;52.282;5.960;2023-05-07T04:48:06;80.75;;;41.08;;
77612;SDS011;66777;52.282;5.960;2023-05-07T04:50:32;89.30;;;51.95;;
77612;SDS011;66777;52.282;5.960;2023-05-07T04:52:58;86.97;;;42.25;;
77612;SDS011;66777;52.282;5.960;2023-05-07T04:55:24;75.35;;;40.10;;
77612;SDS011;66777;52.282;5.960;2023-05-07T04:57:51;80.78;;;51.30;;
77612;SDS011;66777;52.282;5.960;2023-05-07T05:00:18;72.32;;;41.28;;
77612;SDS011;66777;52.282;5.960;2023-05-07T05:02:45;68.60;;;38.83;;
77612;SDS011;66777;52.282;5.960;2023-05-07T05:05:11;78.25;;;38.67;;
77612;SDS011;66777;52.282;5.960;2023-05-07T05:07:36;65.75;;;38.00;;
77612;SDS011;66777;52.282;5.960;2023-05-07T05:10:02;74.35;;;40.03;;
77612;SDS011;66777;52.282;5.960;2023-05-07T05:12:30;65.78;;;37.17;;
77612;SDS011;66777;52.282;5.960;2023-05-07T05:14:57;63.05;;;38.22;;
77612;SDS011;66777;52.282;5.960;2023-05-07T05:17:23;70.88;;;38.60;;
77612;SDS011;66777;52.282;5.960;2023-05-07T05:19:48;65.93;;;39.60;;
77612;SDS011;66777;52.282;5.960;2023-05-07T05:22:16;63.20;;;41.03;;
77612;SDS011;66777;52.282;5.960;2023-05-07T05:24:41;60.55;;;37.33;;
77612;SDS011;66777;52.282;5.960;2023-05-07T05:27:07;57.25;;;36.78;;
77612;SDS011;66777;52.282;5.960;2023-05-07T05:29:33;57.55;;;38.55;;
77612;SDS011;66777;52.282;5.960;2023-05-07T05:31:59;62.95;;;38.78;;
77612;SDS011;66777;52.282;5.960;2023-05-07T05:34:25;60.55;;;36.30;;
77612;SDS011;66777;52.282;5.960;2023-05-07T05:36:51;59.22;;;37.67;;
77612;SDS011;66777;52.282;5.960;2023-05-07T05:39:17;56.88;;;39.08;;
77612;SDS011;66777;52.282;5.960;2023-05-07T05:41:42;59.50;;;37.53;;
77612;SDS011;66777;52.282;5.960;2023-05-07T05:44:08;54.40;;;38.85;;
77612;SDS011;66777;52.282;5.960;2023-05-07T05:46:34;58.15;;;38.60;;
77612;SDS011;66777;52.282;5.960;2023-05-07T05:49:00;65.15;;;38.53;;
77612;SDS011;66777;52.282;5.960;2023-05-07T05:51:27;56.67;;;38.53;;
77612;SDS011;66777;52.282;5.960;2023-05-07T05:53:52;58.28;;;41.25;;
77612;SDS011;66777;52.282;5.960;2023-05-07T05:56:19;57.65;;;40.08;;
77612;SDS011;66777;52.282;5.960;2023-05-07T05:58:46;56.88;;;38.30;;
77612;SDS011;66777;52.282;5.960;2023-05-07T06:01:12;55.35;;;41.22;;
77612;SDS011;66777;52.282;5.960;2023-05-07T06:03:38;52.40;;;39.08;;
77612;SDS011;66777;52.282;5.960;2023-05-07T06:06:04;57.53;;;48.13;;
77612;SDS011;66777;52.282;5.960;2023-05-07T06:08:29;55.30;;;38.20;;
77612;SDS011;66777;52.282;5.960;2023-05-07T06:10:56;52.40;;;35.80;;
77612;SDS011;66777;52.282;5.960;2023-05-07T06:13:22;52.15;;;35.22;;
77612;SDS011;66777;52.282;5.960;2023-05-07T06:15:48;50.00;;;36.35;;
77612;SDS011;66777;52.282;5.960;2023-05-07T06:18:14;54.78;;;37.75;;
77612;SDS011;66777;52.282;5.960;2023-05-07T06:20:40;56.85;;;39.38;;
77612;SDS011;66777;52.282;5.960;2023-05-07T06:23:07;53.60;;;37.67;;
77612;SDS011;66777;52.282;5.960;2023-05-07T06:25:33;58.80;;;46.53;;
77612;SDS011;66777;52.282;5.960;2023-05-07T06:27:59;68.03;;;44.72;;
77612;SDS011;66777;52.282;5.960;2023-05-07T06:30:24;60.60;;;37.55;;
77612;SDS011;66777;52.282;5.960;2023-05-07T06:32:51;51.35;;;37.75;;
77612;SDS011;66777;52.282;5.960;2023-05-07T06:35:17;57.25;;;39.40;;
77612;SDS011;66777;52.282;5.960;2023-05-07T06:37:44;54.15;;;39.20;;
77612;SDS011;66777;52.282;5.960;2023-05-07T06:40:10;56.67;;;39.40;;
77612;SDS011;66777;52.282;5.960;2023-05-07T06:42:36;55.28;;;39.78;;
77612;SDS011;66777;52.282;5.960;2023-05-07T06:45:04;57.28;;;51.22;;
77612;SDS011;66777;52.282;5.960;2023-05-07T06:47:30;57.03;;;50.92;;
77612;SDS011;66777;52.282;5.960;2023-05-07T06:49:56;50.15;;;39.38;;
77612;SDS011;66777;52.282;5.960;2023-05-07T06:52:22;52.95;;;38.70;;
77612;SDS011;66777;52.282;5.960;2023-05-07T06:54:47;56.60;;;42.35;;
77612;SDS011;66777;52.282;5.960;2023-05-07T06:57:13;56.35;;;41.33;;
77612;SDS011;66777;52.282;5.960;2023-05-07T06:59:39;58.33;;;42.08;;
77612;SDS011;66777;52.282;5.960;2023-05-07T07:02:05;55.03;;;39.90;;
77612;SDS011;66777;52.282;5.960;2023-05-07T07:04:31;49.95;;;37.42;;
77612;SDS011;66777;52.282;5.960;2023-05-07T07:06:56;50.50;;;40.42;;
77612;SDS011;66777;52.282;5.960;2023-05-07T07:09:22;48.50;;;38.85;;
77612;SDS011;66777;52.282;5.960;2023-05-07T07:11:48;48.92;;;39.53;;
77612;SDS011;66777;52.282;5.960;2023-05-07T07:14:14;52.20;;;41.40;;
77612;SDS011;66777;52.282;5.960;2023-05-07T07:16:40;47.35;;;40.95;;
77612;SDS011;66777;52.282;5.960;2023-05-07T07:19:06;49.13;;;40.20;;
77612;SDS011;66777;52.282;5.960;2023-05-07T07:21:31;58.10;;;52.22;;
77612;SDS011;66777;52.282;5.960;2023-05-07T07:23:57;49.00;;;40.72;;
77612;SDS011;66777;52.282;5.960;2023-05-07T07:26:23;45.67;;;39.90;;
77612;SDS011;66777;52.282;5.960;2023-05-07T07:28:49;50.13;;;40.10;;
77612;SDS011;66777;52.282;5.960;2023-05-07T07:31:14;52.90;;;42.03;;
77612;SDS011;66777;52.282;5.960;2023-05-07T07:33:40;63.58;;;57.85;;
77612;SDS011;66777;52.282;5.960;2023-05-07T07:36:07;45.78;;;40.58;;
77612;SDS011;66777;52.282;5.960;2023-05-07T07:38:33;47.85;;;42.60;;
77612;SDS011;66777;52.282;5.960;2023-05-07T07:41:00;60.05;;;54.67;;
77612;SDS011;66777;52.282;5.960;2023-05-07T07:43:26;50.00;;;44.83;;
77612;SDS011;66777;52.282;5.960;2023-05-07T07:45:53;51.00;;;45.70;;
77612;SDS011;66777;52.282;5.960;2023-05-07T07:48:19;46.90;;;42.08;;
77612;SDS011;66777;52.282;5.960;2023-05-07T07:50:44;49.00;;;43.72;;
77612;SDS011;66777;52.282;5.960;2023-05-07T07:53:13;47.42;;;42.50;;
77612;SDS011;66777;52.282;5.960;2023-05-07T07:55:39;48.13;;;43.42;;
77612;SDS011;66777;52.282;5.960;2023-05-07T07:58:05;61.95;;;56.63;;
77612;SDS011;66777;52.282;5.960;2023-05-07T08:00:31;45.63;;;41.22;;
77612;SDS011;66777;52.282;5.960;2023-05-07T08:02:57;66.85;;;61.72;;
77612;SDS011;66777;52.282;5.960;2023-05-07T08:05:23;46.17;;;41.83;;
77612;SDS011;66777;52.282;5.960;2023-05-07T08:07:50;47.03;;;42.53;;
77612;SDS011;66777;52.282;5.960;2023-05-07T08:10:18;60.97;;;56.40;;
77612;SDS011;66777;52.282;5.960;2023-05-07T08:12:49;44.67;;;40.08;;
77612;SDS011;66777;52.282;5.960;2023-05-07T08:15:15;47.33;;;42.60;;
77612;SDS011;66777;52.282;5.960;2023-05-07T08:17:41;48.17;;;43.50;;
77612;SDS011;66777;52.282;5.960;2023-05-07T08:20:08;71.63;;;66.35;;
77612;SDS011;66777;52.282;5.960;2023-05-07T08:22:34;47.83;;;43.53;;
77612;SDS011;66777;52.282;5.960;2023-05-07T08:25:03;51.97;;;47.42;;
77612;SDS011;66777;52.282;5.960;2023-05-07T08:27:29;56.88;;;52.30;;
77612;SDS011;66777;52.282;5.960;2023-05-07T08:29:54;50.22;;;46.33;;
77612;SDS011;66777;52.282;5.960;2023-05-07T08:32:20;47.72;;;43.95;;
77612;SDS011;66777;52.282;5.960;2023-05-07T08:34:47;48.10;;;43.97;;
77612;SDS011;66777;52.282;5.960;2023-05-07T08:37:13;48.65;;;44.63;;
77612;SDS011;66777;52.282;5.960;2023-05-07T08:39:38;48.63;;;44.90;;
77612;SDS011;66777;52.282;5.960;2023-05-07T08:42:04;51.00;;;46.80;;
77612;SDS011;66777;52.282;5.960;2023-05-07T08:44:34;52.47;;;48.33;;
77612;SDS011;66777;52.282;5.960;2023-05-07T08:47:01;50.58;;;46.25;;
77612;SDS011;66777;52.282;5.960;2023-05-07T08:49:27;58.28;;;53.88;;
77612;SDS011;66777;52.282;5.960;2023-05-07T08:51:55;71.00;;;66.30;;
77612;SDS011;66777;52.282;5.960;2023-05-07T08:54:21;53.13;;;48.92;;
77612;SDS011;66777;52.282;5.960;2023-05-07T08:56:47;52.55;;;48.38;;
77612;SDS011;66777;52.282;5.960;2023-05-07T08:59:13;57.10;;;52.53;;
77612;SDS011;66777;52.282;5.960;2023-05-07T09:01:40;52.63;;;48.65;;
77612;SDS011;66777;52.282;5.960;2023-05-07T09:04:06;53.80;;;49.65;;
77612;SDS011;66777;52.282;5.960;2023-05-07T09:06:33;55.63;;;51.65;;
77612;SDS011;66777;52.282;5.960;2023-05-07T09:08:59;75.70;;;71.20;;
77612;SDS011;66777;52.282;5.960;2023-05-07T09:11:26;62.58;;;58.15;;
77612;SDS011;66777;52.282;5.960;2023-05-07T09:13:53;58.65;;;54.80;;
77612;SDS011;66777;52.282;5.960;2023-05-07T09:16:21;76.60;;;72.07;;
77612;SDS011;66777;52.282;5.960;2023-05-07T09:18:48;59.83;;;55.67;;
77612;SDS011;66777;52.282;5.960;2023-05-07T09:21:17;57.45;;;53.08;;
77612;SDS011;66777;52.282;5.960;2023-05-07T09:23:43;55.95;;;52.15;;
77612;SDS011;66777;52.282;5.960;2023-05-07T09:26:09;53.63;;;49.42;;
77612;SDS011;66777;52.282;5.960;2023-05-07T09:28:42;67.03;;;62.80;;
77612;SDS011;66777;52.282;5.960;2023-05-07T09:31:09;54.40;;;50.53;;
77612;SDS011;66777;52.282;5.960;2023-05-07T09:33:36;79.57;;;74.82;;
77612;SDS011;66777;52.282;5.960;2023-05-07T09:36:03;57.95;;;53.85;;
77612;SDS011;66777;52.282;5.960;2023-05-07T09:38:33;55.58;;;51.65;;
77612;SDS011;66777;52.282;5.960;2023-05-07T09:41:03;54.13;;;50.30;;
77612;SDS011;66777;52.282;5.960;2023-05-07T09:43:34;54.72;;;50.60;;
77612;SDS011;66777;52.282;5.960;2023-05-07T09:46:02;62.78;;;58.42;;
77612;SDS011;66777;52.282;5.960;2023-05-07T09:48:31;59.20;;;54.75;;
77612;SDS011;66777;52.282;5.960;2023-05-07T09:51:02;56.25;;;52.03;;
77612;SDS011;66777;52.282;5.960;2023-05-07T09:53:31;54.83;;;50.58;;
77612;SDS011;66777;52.282;5.960;2023-05-07T09:55:59;69.45;;;64.80;;
77612;SDS011;66777;52.282;5.960;2023-05-07T09:58:26;72.10;;;67.68;;
77612;SDS011;66777;52.282;5.960;2023-05-07T10:00:52;53.67;;;49.63;;
77612;SDS011;66777;52.282;5.960;2023-05-07T10:03:18;54.05;;;50.03;;
77612;SDS011;66777;52.282;5.960;2023-05-07T10:05:45;52.10;;;47.90;;
77612;SDS011;66777;52.282;5.960;2023-05-07T10:08:12;55.20;;;50.08;;
77612;SDS011;66777;52.282;5.960;2023-05-07T10:10:41;76.30;;;71.03;;
77612;SDS011;66777;52.282;5.960;2023-05-07T10:13:07;55.95;;;51.47;;
77612;SDS011;66777;52.282;5.960;2023-05-07T10:15:35;77.40;;;71.78;;
77612;SDS011;66777;52.282;5.960;2023-05-07T10:18:03;59.63;;;54.78;;
77612;SDS011;66777;52.282;5.960;2023-05-07T10:20:31;55.17;;;50.53;;
77612;SDS011;66777;52.282;5.960;2023-05-07T10:23:00;56.05;;;51.58;;
77612;SDS011;66777;52.282;5.960;2023-05-07T10:25:29;60.55;;;55.55;;
77612;SDS011;66777;52.282;5.960;2023-05-07T10:27:59;55.75;;;51.15;;
77612;SDS011;66777;52.282;5.960;2023-05-07T10:33:22;60.13;;;55.17;;
77612;SDS011;66777;52.282;5.960;2023-05-07T10:35:51;60.17;;;55.40;;
77612;SDS011;66777;52.282;5.960;2023-05-07T10:38:24;62.03;;;57.53;;
77612;SDS011;66777;52.282;5.960;2023-05-07T10:40:50;55.58;;;51.17;;
77612;SDS011;66777;52.282;5.960;2023-05-07T10:43:16;58.08;;;53.10;;
77612;SDS011;66777;52.282;5.960;2023-05-07T10:45:42;56.97;;;52.35;;
77612;SDS011;66777;52.282;5.960;2023-05-07T10:48:15;59.30;;;54.75;;
77612;SDS011;66777;52.282;5.960;2023-05-07T10:50:45;55.42;;;50.90;;
77612;SDS011;66777;52.282;5.960;2023-05-07T10:55:42;55.13;;;50.70;;
77612;SDS011;66777;52.282;5.960;2023-05-07T11:00:46;58.35;;;53.45;;
77612;SDS011;66777;52.282;5.960;2023-05-07T11:03:13;56.55;;;51.60;;
77612;SDS011;66777;52.282;5.960;2023-05-07T11:05:40;74.00;;;68.80;;
77612;SDS011;66777;52.282;5.960;2023-05-07T11:08:07;52.90;;;48.47;;
77612;SDS011;66777;52.282;5.960;2023-05-07T11:10:50;56.17;;;51.72;;
77612;SDS011;66777;52.282;5.960;2023-05-07T11:16:17;55.08;;;50.85;;
77612;SDS011;66777;52.282;5.960;2023-05-07T11:18:50;75.65;;;70.78;;
77612;SDS011;66777;52.282;5.960;2023-05-07T11:21:39;58.70;;;54.33;;
77612;SDS011;66777;52.282;5.960;2023-05-07T11:24:07;58.92;;;54.65;;
77612;SDS011;66777;52.282;5.960;2023-05-07T11:26:41;58.35;;;53.83;;
77612;SDS011;66777;52.282;5.960;2023-05-07T11:29:15;65.00;;;60.28;;
77612;SDS011;66777;52.282;5.960;2023-05-07T11:31:48;58.97;;;54.60;;
77612;SDS011;66777;52.282;5.960;2023-05-07T11:34:22;60.47;;;56.08;;
77612;SDS011;66777;52.282;5.960;2023-05-07T11:36:49;57.35;;;52.90;;
77612;SDS011;66777;52.282;5.960;2023-05-07T11:39:25;82.60;;;77.68;;
77612;SDS011;66777;52.282;5.960;2023-05-07T11:42:01;61.75;;;56.83;;
77612;SDS011;66777;52.282;5.960;2023-05-07T11:44:43;59.80;;;55.15;;
77612;SDS011;66777;52.282;5.960;2023-05-07T11:47:11;59.78;;;55.25;;
77612;SDS011;66777;52.282;5.960;2023-05-07T11:49:42;79.47;;;74.15;;
77612;SDS011;66777;52.282;5.960;2023-05-07T11:52:11;59.38;;;55.05;;
77612;SDS011;66777;52.282;5.960;2023-05-07T11:54:38;61.03;;;56.47;;
77612;SDS011;66777;52.282;5.960;2023-05-07T11:57:04;59.92;;;55.53;;
77612;SDS011;66777;52.282;5.960;2023-05-07T11:59:37;62.95;;;58.35;;
77612;SDS011;66777;52.282;5.960;2023-05-07T12:02:05;64.65;;;60.00;;
77612;SDS011;66777;52.282;5.960;2023-05-07T12:04:33;66.00;;;61.35;;
77612;SDS011;66777;52.282;5.960;2023-05-07T12:06:59;70.75;;;66.28;;
77612;SDS011;66777;52.282;5.960;2023-05-07T12:09:26;92.80;;;87.47;;
77612;SDS011;66777;52.282;5.960;2023-05-07T12:11:52;95.55;;;90.43;;
77612;SDS011;66777;52.282;5.960;2023-05-07T12:14:18;75.50;;;70.80;;
77612;SDS011;66777;52.282;5.960;2023-05-07T12:16:44;78.03;;;73.22;;
77612;SDS011;66777;52.282;5.960;2023-05-07T12:19:11;76.85;;;72.18;;
77612;SDS011;66777;52.282;5.960;2023-05-07T12:21:38;98.78;;;93.97;;
77612;SDS011;66777;52.282;5.960;2023-05-07T12:24:05;101.78;;;96.72;;
77612;SDS011;66777;52.282;5.960;2023-05-07T12:26:31;118.60;;;113.22;;
77612;SDS011;66777;52.282;5.960;2023-05-07T12:28:57;89.50;;;84.63;;
77612;SDS011;66777;52.282;5.960;2023-05-07T12:31:25;102.45;;;97.47;;
77612;SDS011;66777;52.282;5.960;2023-05-07T12:33:51;105.38;;;100.32;;
77612;SDS011;66777;52.282;5.960;2023-05-07T12:36:18;107.40;;;102.63;;
77612;SDS011;66777;52.282;5.960;2023-05-07T12:38:43;115.55;;;110.65;;
77612;SDS011;66777;52.282;5.960;2023-05-07T12:41:10;120.57;;;115.40;;
77612;SDS011;66777;52.282;5.960;2023-05-07T12:43:39;130.70;;;125.38;;
77612;SDS011;66777;52.282;5.960;2023-05-07T12:46:09;134.27;;;128.95;;
77612;SDS011;66777;52.282;5.960;2023-05-07T12:48:38;141.30;;;135.80;;
77612;SDS011;66777;52.282;5.960;2023-05-07T12:51:09;134.50;;;129.23;;
77612;SDS011;66777;52.282;5.960;2023-05-07T12:53:41;128.30;;;122.97;;
77612;SDS011;66777;52.282;5.960;2023-05-07T12:56:07;124.40;;;119.53;;
77612;SDS011;66777;52.282;5.960;2023-05-07T12:58:34;125.32;;;120.10;;
77612;SDS011;66777;52.282;5.960;2023-05-07T13:01:04;120.45;;;115.35;;
77612;SDS011;66777;52.282;5.960;2023-05-07T13:03:35;145.63;;;140.20;;
77612;SDS011;66777;52.282;5.960;2023-05-07T13:06:03;103.70;;;99.13;;
77612;SDS011;66777;52.282;5.960;2023-05-07T13:08:32;104.05;;;99.07;;
77612;SDS011;66777;52.282;5.960;2023-05-07T13:11:00;138.85;;;133.27;;
77612;SDS011;66777;52.282;5.960;2023-05-07T13:13:29;135.80;;;130.23;;
77612;SDS011;66777;52.282;5.960;2023-05-07T13:15:56;95.18;;;90.72;;
77612;SDS011;66777;52.282;5.960;2023-05-07T13:18:22;128.10;;;122.80;;
77612;SDS011;66777;52.282;5.960;2023-05-07T13:20:49;87.30;;;83.07;;
77612;SDS011;66777;52.282;5.960;2023-05-07T13:23:15;82.15;;;78.05;;
77612;SDS011;66777;52.282;5.960;2023-05-07T13:25:40;88.38;;;83.93;;
77612;SDS011;66777;52.282;5.960;2023-05-07T13:28:06;86.45;;;82.15;;
77612;SDS011;66777;52.282;5.960;2023-05-07T13:30:32;75.97;;;71.68;;
77612;SDS011;66777;52.282;5.960;2023-05-07T13:32:58;79.80;;;75.60;;
77612;SDS011;66777;52.282;5.960;2023-05-07T13:35:23;98.47;;;93.85;;
77612;SDS011;66777;52.282;5.960;2023-05-07T13:37:49;74.93;;;70.63;;
77612;SDS011;66777;52.282;5.960;2023-05-07T13:40:17;77.18;;;72.95;;
77612;SDS011;66777;52.282;5.960;2023-05-07T13:42:44;75.38;;;70.82;;
77612;SDS011;66777;52.282;5.960;2023-05-07T13:45:10;64.40;;;60.33;;
77612;SDS011;66777;52.282;5.960;2023-05-07T13:47:38;71.97;;;68.05;;
77612;SDS011;66777;52.282;5.960;2023-05-07T13:50:05;68.38;;;64.45;;
77612;SDS011;66777;52.282;5.960;2023-05-07T13:52:32;74.95;;;70.80;;
77612;SDS011;66777;52.282;5.960;2023-05-07T13:54:59;89.72;;;85.20;;
77612;SDS011;66777;52.282;5.960;2023-05-07T13:57:25;74.85;;;70.78;;
77612;SDS011;66777;52.282;5.960;2023-05-07T13:59:51;95.75;;;91.05;;
77612;SDS011;66777;52.282;5.960;2023-05-07T14:02:17;67.50;;;63.35;;
77612;SDS011;66777;52.282;5.960;2023-05-07T14:04:42;69.18;;;65.43;;
77612;SDS011;66777;52.282;5.960;2023-05-07T14:07:08;68.35;;;64.30;;
77612;SDS011;66777;52.282;5.960;2023-05-07T14:09:34;70.10;;;66.13;;
77612;SDS011;66777;52.282;5.960;2023-05-07T14:11:59;69.90;;;66.03;;
77612;SDS011;66777;52.282;5.960;2023-05-07T14:14:26;78.85;;;74.55;;
77612;SDS011;66777;52.282;5.960;2023-05-07T14:16:52;80.28;;;76.07;;
77612;SDS011;66777;52.282;5.960;2023-05-07T14:19:18;135.18;;;129.85;;
77612;SDS011;66777;52.282;5.960;2023-05-07T14:21:44;131.35;;;125.82;;
77612;SDS011;66777;52.282;5.960;2023-05-07T14:24:09;93.68;;;89.22;;
77612;SDS011;66777;52.282;5.960;2023-05-07T14:26:35;92.55;;;88.32;;
77612;SDS011;66777;52.282;5.960;2023-05-07T14:29:02;93.88;;;89.13;;